Albany, Vermont
Current Conditions -  °F | °C
As of 8:55 PM on Saturday 22 Nov 2014 (Local Time) from KEFK Reporting Station
Overcast Overcast  
Wind Chill: 24°   Ceiling: 2300
Heat Index: 32°   Visibility: 10mi
Dew Point: 26°   Wind: 9mph
Humidity: 77%   Direction: 150°SSE
Pressure: 29.91"   Gusts: NA
Location:  44.73°N, 72.38°W
Report Text: KEFK 230155Z AUTO 15008KT 10SM OVC023 00/M04 A2991 RMK AO2 T00001036
Loading
Personal Weather Stations






























Interactive Weather Map New forecast layout! Learn more

10-Day Weather Forecast

Advertisements
Track Severe Weather on mobile